createdAt,value
2019-03-04T00:01:36.329Z,99162.78
2019-03-04T00:02:46.509Z,99160.61
2019-03-04T00:03:56.115Z,99157.36
2019-03-04T00:05:07.028Z,99159.19
2019-03-04T00:06:14.019Z,99160.95
2019-03-04T00:07:18.407Z,99157.47
2019-03-04T00:08:22.682Z,99146.97
2019-03-04T00:09:27.273Z,99148.80
2019-03-04T00:10:31.524Z,99150.11
2019-03-04T00:11:36.339Z,99154.15
2019-03-04T00:12:40.974Z,99147.20
2019-03-04T00:13:45.595Z,99155.59
2019-03-04T00:14:49.838Z,99149.83
2019-03-04T00:15:54.137Z,99145.89
2019-03-04T00:17:01.554Z,99144.17
2019-03-04T00:18:06.222Z,99148.52
2019-03-04T00:19:13.309Z,99142.47
2019-03-04T00:20:20.305Z,99142.47
2019-03-04T00:21:24.552Z,99144.41
2019-03-04T00:22:29.115Z,99145.61
2019-03-04T00:23:36.209Z,99145.20
2019-03-04T00:24:40.478Z,99141.27
2019-03-04T00:25:47.464Z,99147.83
2019-03-04T00:26:54.459Z,99146.52
2019-03-04T00:27:59.113Z,99143.89
2019-03-04T00:29:03.740Z,99137.05
2019-03-04T00:30:11.884Z,99124.79
2019-03-04T00:31:16.594Z,99118.67
2019-03-04T00:32:20.883Z,99092.33
2019-03-04T00:33:25.128Z,99090.60
2019-03-04T00:34:29.962Z,99098.72
2019-03-04T00:35:37.160Z,99101.45
2019-03-04T00:36:41.960Z,99105.73
2019-03-04T00:37:49.254Z,99096.78
2019-03-04T00:38:56.588Z,99100.41
2019-03-04T00:40:05.089Z,99097.16
2019-03-04T00:41:12.069Z,99100.13
2019-03-04T00:42:19.380Z,99101.62
2019-03-04T00:43:26.666Z,99103.45
2019-03-04T00:44:34.017Z,99102.66
2019-03-04T00:45:41.295Z,99102.93
2019-03-04T00:46:45.611Z,99104.83
2019-03-04T00:47:52.886Z,99107.91
2019-03-04T00:48:57.215Z,99103.79
2019-03-04T00:50:06.126Z,99107.03
2019-03-04T00:51:10.377Z,99101.27
2019-03-04T00:52:17.589Z,99097.30
2019-03-04T00:53:22.242Z,99093.39
2019-03-04T00:54:26.497Z,99095.64
2019-03-04T00:55:31.684Z,99095.02
2019-03-04T00:56:36.097Z,99104.48
2019-03-04T00:57:42.671Z,99099.16
2019-03-04T00:58:46.890Z,99096.67
2019-03-04T00:59:51.234Z,99088.91
2019-03-04T01:00:56.545Z,99088.80
2019-03-04T01:02:00.788Z,99080.97
2019-03-04T01:03:08.391Z,99082.41
2019-03-04T01:04:12.632Z,99076.38
2019-03-04T01:05:19.597Z,99078.03
2019-03-04T01:06:24.260Z,99067.12
2019-03-04T01:07:28.591Z,99061.02
2019-03-04T01:08:35.654Z,99061.88
2019-03-04T01:09:39.928Z,99057.49
2019-03-04T01:10:44.611Z,99057.25
2019-03-04T01:11:48.895Z,99051.48
2019-03-04T01:12:53.154Z,99045.23
2019-03-04T01:13:57.724Z,99047.86
2019-03-04T01:15:02.005Z,99042.30
2019-03-04T01:16:07.825Z,99041.17
2019-03-04T01:17:13.145Z,99040.65
2019-03-04T01:18:20.485Z,99033.70
2019-03-04T01:19:24.723Z,99041.41
2019-03-04T01:20:29.018Z,99042.55
2019-03-04T01:21:36.199Z,99038.61
2019-03-04T01:22:40.486Z,99033.39
2019-03-04T01:23:47.396Z,99032.77
2019-03-04T01:24:51.715Z,99032.59
2019-03-04T01:25:56.630Z,99028.92
2019-03-04T01:27:03.625Z,99027.23
2019-03-04T01:28:08.213Z,99027.26
2019-03-04T01:29:12.538Z,99021.48
2019-03-04T01:30:22.291Z,99023.34
2019-03-04T01:31:29.273Z,99020.94
2019-03-04T01:32:33.571Z,99018.95
2019-03-04T01:33:40.804Z,99006.00
2019-03-04T01:34:48.063Z,99001.73
2019-03-04T01:35:54.997Z,98998.39
2019-03-04T01:36:59.270Z,98999.86
2019-03-04T01:38:03.513Z,98993.22
2019-03-04T01:39:07.844Z,98992.70
2019-03-04T01:40:17.537Z,98993.67
2019-03-04T01:41:24.822Z,98987.37
2019-03-04T01:42:31.776Z,98995.25
2019-03-04T01:43:36.369Z,98987.71
2019-03-04T01:44:40.987Z,98988.98
2019-03-04T01:45:45.275Z,98979.91
2019-03-04T01:46:52.616Z,98979.01
2019-03-04T01:47:56.858Z,98978.94
2019-03-04T01:49:04.104Z,98983.96
2019-03-04T01:50:13.239Z,98975.25
2019-03-04T01:51:18.600Z,98978.19
2019-03-04T01:52:23.241Z,98973.34
2019-03-04T01:53:30.215Z,98971.63
2019-03-04T01:54:34.475Z,98966.00
2019-03-04T01:55:39.211Z,98971.44
2019-03-04T01:56:43.479Z,98967.05
2019-03-04T01:57:47.778Z,98974.25
2019-03-04T01:58:52.196Z,98971.50
2019-03-04T01:59:56.510Z,98965.77
2019-03-04T02:01:00.903Z,98965.58
2019-03-04T02:02:05.150Z,98958.12
2019-03-04T02:03:10.808Z,98964.80
2019-03-04T02:04:15.416Z,98967.67
2019-03-04T02:05:20.387Z,98968.09
2019-03-04T02:06:24.972Z,98972.93
2019-03-04T02:07:29.233Z,98975.55
2019-03-04T02:08:33.496Z,98974.31
2019-03-04T02:09:37.723Z,98978.81
2019-03-04T02:10:42.392Z,98975.73
2019-03-04T02:11:47.136Z,98983.16
2019-03-04T02:12:51.375Z,98979.22
2019-03-04T02:13:55.635Z,98974.09
2019-03-04T02:14:59.880Z,98977.64
2019-03-04T02:16:05.637Z,98970.81
2019-03-04T02:17:12.789Z,98974.79
2019-03-04T02:18:20.968Z,98969.86
2019-03-04T02:19:25.230Z,98966.48
2019-03-04T02:20:29.458Z,98971.27
2019-03-04T02:21:33.734Z,98970.96
2019-03-04T02:22:38.487Z,98979.77
2019-03-04T02:23:43.043Z,98976.80
2019-03-04T02:24:47.382Z,98974.10
2019-03-04T02:25:55.193Z,98975.03
2019-03-04T02:26:59.478Z,98977.84
2019-03-04T02:28:03.739Z,98975.32
2019-03-04T02:29:08.003Z,98974.80
2019-03-04T02:30:18.444Z,98974.87
2019-03-04T02:31:22.704Z,98981.53
2019-03-04T02:32:30.742Z,98985.19
2019-03-04T02:33:38.018Z,98992.60
2019-03-04T02:34:42.265Z,98988.67
2019-03-04T02:35:46.662Z,98998.64
2019-03-04T02:36:51.298Z,99001.34
2019-03-04T02:37:55.906Z,98997.44
2019-03-04T02:39:00.503Z,98996.64
2019-03-04T02:40:07.873Z,98997.58
2019-03-04T02:41:12.505Z,98999.27
2019-03-04T02:42:16.808Z,98989.81
2019-03-04T02:43:21.133Z,98988.61
2019-03-04T02:44:25.813Z,98989.27
2019-03-04T02:45:33.059Z,98980.60
2019-03-04T02:46:40.312Z,98980.80
2019-03-04T02:47:44.570Z,98975.28
2019-03-04T02:48:48.871Z,98976.32
2019-03-04T02:49:56.508Z,98976.70
2019-03-04T02:51:00.795Z,98974.49
2019-03-04T02:52:08.019Z,98974.32
2019-03-04T02:53:15.207Z,98976.08
2019-03-04T02:54:19.457Z,98968.39
2019-03-04T02:55:23.765Z,98972.94
2019-03-04T02:56:30.993Z,98968.56
2019-03-04T02:57:35.242Z,98964.70
2019-03-04T02:58:39.521Z,98970.97
2019-03-04T02:59:43.895Z,98967.70
2019-03-04T03:00:48.191Z,98958.66
2019-03-04T03:01:53.422Z,98961.04
2019-03-04T03:02:57.682Z,98954.73
2019-03-04T03:04:02.008Z,98960.00
2019-03-04T03:05:09.310Z,98962.00
2019-03-04T03:06:13.598Z,98957.21
2019-03-04T03:07:21.039Z,98952.89
2019-03-04T03:08:25.305Z,98944.86
2019-03-04T03:09:29.570Z,98937.95
2019-03-04T03:10:33.807Z,98935.86
2019-03-04T03:11:38.098Z,98936.38
2019-03-04T03:12:42.359Z,98924.47
2019-03-04T03:13:49.302Z,98918.64
2019-03-04T03:14:56.594Z,98914.02
2019-03-04T03:16:00.838Z,98914.20
2019-03-04T03:17:08.802Z,98915.20
2019-03-04T03:18:13.051Z,98900.58
2019-03-04T03:19:17.567Z,98899.61
2019-03-04T03:20:24.994Z,98896.61
2019-03-04T03:21:29.611Z,98897.26
2019-03-04T03:22:33.971Z,98899.74
2019-03-04T03:23:38.246Z,98900.64
2019-03-04T03:24:45.261Z,98887.71
2019-03-04T03:25:52.737Z,98886.13
2019-03-04T03:26:57.006Z,98888.75
2019-03-04T03:28:01.276Z,98890.30
2019-03-04T03:29:05.971Z,98891.09
2019-03-04T03:30:12.786Z,98887.19
2019-03-04T03:31:19.896Z,98891.71
2019-03-04T03:32:24.185Z,98889.98
2019-03-04T03:33:31.349Z,98887.37
2019-03-04T03:34:38.365Z,98884.23
2019-03-04T03:35:42.653Z,98888.91
2019-03-04T03:36:47.315Z,98885.54
2019-03-04T03:37:51.563Z,98875.58
2019-03-04T03:38:56.224Z,98877.12
2019-03-04T03:40:00.825Z,98872.16
2019-03-04T03:41:05.765Z,98866.40
2019-03-04T03:42:10.488Z,98869.81
2019-03-04T03:43:14.735Z,98858.50
2019-03-04T03:44:18.980Z,98851.47
2019-03-04T03:45:26.177Z,98857.73
2019-03-04T03:46:30.763Z,98859.11
2019-03-04T03:47:37.738Z,98857.23
2019-03-04T03:48:42.099Z,98856.95
2019-03-04T03:49:46.758Z,98849.34
2019-03-04T03:50:54.353Z,98833.72
2019-03-04T03:52:01.646Z,98834.23
2019-03-04T03:53:08.586Z,98824.63
2019-03-04T03:54:12.830Z,98826.08
2019-03-04T03:55:19.797Z,98828.69
2019-03-04T03:56:26.728Z,98826.17
2019-03-04T03:57:33.954Z,98825.28
2019-03-04T03:58:38.207Z,98823.62
2019-03-04T03:59:45.156Z,98820.73
2019-03-04T04:00:49.389Z,98823.11
2019-03-04T04:01:53.642Z,98821.08
2019-03-04T04:02:59.861Z,98824.04
2019-03-04T04:04:06.827Z,98829.38
2019-03-04T04:05:11.052Z,98819.97
2019-03-04T04:06:15.649Z,98820.10
2019-03-04T04:07:22.641Z,98830.86
2019-03-04T04:08:26.941Z,98829.48
2019-03-04T04:09:31.796Z,98829.09
2019-03-04T04:10:38.955Z,98832.58
2019-03-04T04:11:44.776Z,98837.30
2019-03-04T04:12:50.004Z,98833.23
2019-03-04T04:13:54.245Z,98835.86
2019-03-04T04:14:58.558Z,98820.56
2019-03-04T04:16:05.777Z,98815.88
2019-03-04T04:17:12.994Z,98818.31
2019-03-04T04:18:17.247Z,98814.63
2019-03-04T04:19:21.494Z,98811.67
2019-03-04T04:20:25.750Z,98812.05
2019-03-04T04:21:33.027Z,98814.73
2019-03-04T04:22:37.300Z,98819.97
2019-03-04T04:23:42.242Z,98811.67
2019-03-04T04:24:46.497Z,98799.36
2019-03-04T04:25:53.779Z,98796.64
2019-03-04T04:27:01.041Z,98796.23
2019-03-04T04:28:07.187Z,98784.61
2019-03-04T04:29:14.407Z,98781.92
2019-03-04T04:30:20.578Z,98782.58
2019-03-04T04:31:24.868Z,98780.34
2019-03-04T04:32:32.573Z,98779.55
2019-03-04T04:33:36.835Z,98778.23
2019-03-04T04:34:41.086Z,98766.02
2019-03-04T04:35:45.344Z,98764.98
2019-03-04T04:36:49.595Z,98772.02
2019-03-04T04:37:54.262Z,98767.83
2019-03-04T04:38:58.494Z,98763.91
2019-03-04T04:40:02.792Z,98748.56
2019-03-04T04:41:11.211Z,98749.22
2019-03-04T04:42:16.822Z,98741.63
2019-03-04T04:43:24.036Z,98737.95
2019-03-04T04:44:28.304Z,98734.29
2019-03-04T04:45:32.531Z,98737.81
2019-03-04T04:46:51.256Z,98733.36
2019-03-04T04:47:58.250Z,98729.88
2019-03-04T04:49:05.199Z,98734.94
2019-03-04T04:50:18.577Z,98727.38
2019-03-04T04:51:23.218Z,98728.34
2019-03-04T04:52:27.858Z,98726.97
2019-03-04T04:53:32.139Z,98722.96
2019-03-04T04:54:36.394Z,98730.78
2019-03-04T04:55:40.639Z,98729.73
2019-03-04T04:56:44.914Z,98728.09
2019-03-04T04:57:49.183Z,98711.95
2019-03-04T04:58:53.460Z,98710.08
2019-03-04T05:00:00.495Z,98708.51
2019-03-04T05:01:09.085Z,98704.05
2019-03-04T05:02:13.334Z,98702.18
2019-03-04T05:03:20.997Z,98701.70
2019-03-04T05:04:25.258Z,98703.80
2019-03-04T05:05:32.860Z,98702.36
2019-03-04T05:06:37.086Z,98704.34
2019-03-04T05:07:41.714Z,98699.69
2019-03-04T05:08:46.079Z,98701.05
2019-03-04T05:09:50.358Z,98700.85
2019-03-04T05:10:54.597Z,98700.20
2019-03-04T05:11:59.828Z,98702.30
2019-03-04T05:13:04.213Z,98704.59
2019-03-04T05:14:08.747Z,98703.69
2019-03-04T05:15:14.736Z,98698.04
2019-03-04T05:16:22.221Z,98695.41
2019-03-04T05:17:29.462Z,98702.45
2019-03-04T05:18:34.402Z,98701.44
2019-03-04T05:19:38.694Z,98701.97
2019-03-04T05:20:43.397Z,98699.94
2019-03-04T05:21:47.632Z,98691.16
2019-03-04T05:22:51.883Z,98698.43
2019-03-04T05:23:56.456Z,98693.71
2019-03-04T05:25:00.735Z,98695.95
2019-03-04T05:26:05.687Z,98693.34
2019-03-04T05:27:09.943Z,98690.23
2019-03-04T05:28:17.437Z,98685.47
2019-03-04T05:29:24.686Z,98688.09
2019-03-04T05:30:32.316Z,98682.30
2019-03-04T05:31:36.717Z,98667.09
2019-03-04T05:48:55.542Z,98655.17
2019-03-04T05:49:59.802Z,98655.51
2019-03-04T05:51:04.215Z,98661.91
2019-03-04T05:52:09.127Z,98658.31
2019-03-04T05:53:16.015Z,98659.50
2019-03-04T05:54:20.279Z,98661.52
2019-03-04T05:55:24.542Z,98652.25
2019-03-04T05:56:28.858Z,98647.87
2019-03-04T05:57:36.047Z,98645.50
2019-03-04T05:58:40.330Z,98640.45
2019-03-04T05:59:47.619Z,98646.11
2019-03-04T06:01:12.454Z,98637.25
2019-03-04T06:02:16.752Z,98641.77
2019-03-04T06:03:22.645Z,98641.97
2019-03-04T06:04:26.928Z,98652.45
2019-03-04T06:05:33.904Z,98651.15
2019-03-04T06:06:42.767Z,98647.46
2019-03-04T06:07:57.656Z,98648.85
2019-03-04T06:09:01.887Z,98644.47
2019-03-04T06:10:10.364Z,98643.69
2019-03-04T06:11:14.907Z,98643.28
2019-03-04T06:12:22.141Z,98641.27
2019-03-04T06:13:26.646Z,98645.05
2019-03-04T06:14:30.926Z,98639.92
2019-03-04T06:15:35.168Z,98647.09
2019-03-04T06:16:47.048Z,98635.20
2019-03-04T06:17:45.470Z,98622.46
2019-03-04T06:18:49.749Z,98625.36
2019-03-04T06:19:54.020Z,98622.74
2019-03-04T06:21:01.073Z,98624.42
2019-03-04T06:22:05.326Z,98614.87
2019-03-04T06:23:12.543Z,98618.03
2019-03-04T06:24:16.786Z,98614.47
2019-03-04T06:25:26.866Z,98621.48
2019-03-04T06:26:31.369Z,98631.92
2019-03-04T06:27:35.631Z,98622.83
2019-03-04T06:28:39.898Z,98615.23
2019-03-04T06:29:47.143Z,98615.36
2019-03-04T06:30:51.420Z,98603.55
2019-03-04T06:31:55.736Z,98597.53
2019-03-04T06:32:59.996Z,98596.05
2019-03-04T06:34:04.237Z,98606.75
2019-03-04T06:35:10.573Z,98594.19
2019-03-04T06:36:14.836Z,98596.92
2019-03-04T06:37:19.107Z,98595.98
2019-03-04T06:38:23.534Z,98590.61
2019-03-04T06:39:27.814Z,98584.36
2019-03-04T06:40:35.125Z,98585.97
2019-03-04T06:41:39.445Z,98578.77
2019-03-04T06:42:46.504Z,98576.30
2019-03-04T06:43:50.798Z,98578.15
2019-03-04T06:44:55.148Z,98577.03
2019-03-04T06:46:03.546Z,98579.97
2019-03-04T06:47:11.506Z,98567.22
2019-03-04T06:48:15.749Z,98569.17
2019-03-04T06:49:20.147Z,98569.17
2019-03-04T06:50:56.974Z,98563.92
2019-03-04T06:52:01.222Z,98554.78
2019-03-04T06:53:08.759Z,98556.50
2019-03-04T06:54:19.137Z,98540.13
2019-03-04T06:55:26.658Z,98550.17
2019-03-04T06:56:36.714Z,98549.72
2019-03-04T06:57:41.016Z,98549.80
2019-03-04T06:59:03.610Z,98550.93
2019-03-04T07:00:26.259Z,98541.20
2019-03-04T07:01:45.986Z,98544.06
2019-03-04T07:02:53.373Z,98544.33
2019-03-04T07:04:01.132Z,98541.08
2019-03-04T07:05:32.753Z,98541.31
2019-03-04T07:06:37.007Z,98528.08
2019-03-04T07:07:41.283Z,98533.25
2019-03-04T07:08:48.799Z,98532.11
2019-03-04T07:09:53.066Z,98516.64
2019-03-04T07:10:57.419Z,98514.01
2019-03-04T07:12:01.666Z,98520.44
2019-03-04T07:13:05.905Z,98513.88
2019-03-04T07:14:10.220Z,98521.30
2019-03-04T07:15:14.463Z,98511.38
2019-03-04T07:16:21.820Z,98506.91
2019-03-04T07:17:26.068Z,98502.59
2019-03-04T07:18:30.319Z,98496.80
2019-03-04T07:19:34.742Z,98492.00
2019-03-04T07:20:41.961Z,98486.61
2019-03-04T07:21:47.931Z,98493.48
2019-03-04T07:22:52.332Z,98490.38
2019-03-04T07:23:56.573Z,98489.60
2019-03-04T07:25:00.838Z,98492.45
2019-03-04T07:26:05.125Z,98480.05
2019-03-04T07:27:09.368Z,98482.67
2019-03-04T07:28:13.623Z,98475.78
2019-03-04T07:29:17.895Z,98471.08
2019-03-04T07:30:22.110Z,98469.84
2019-03-04T07:31:26.380Z,98474.55
2019-03-04T07:32:31.621Z,98474.02
2019-03-04T07:33:35.876Z,98473.47
2019-03-04T07:34:40.124Z,98468.76
2019-03-04T07:35:44.820Z,98475.33
2019-03-04T07:36:52.213Z,98464.89
2019-03-04T07:38:14.910Z,98468.06
2019-03-04T07:39:21.920Z,98454.53
2019-03-04T07:40:26.171Z,98449.13
2019-03-04T07:41:30.460Z,98449.50
2019-03-04T07:42:34.732Z,98442.48
2019-03-04T07:43:39.016Z,98440.52
2019-03-04T07:44:46.111Z,98433.17
2019-03-04T07:45:53.135Z,98419.76
2019-03-04T07:46:57.420Z,98431.95
2019-03-04T07:48:01.734Z,98426.14
2019-03-04T07:49:06.028Z,98435.34
2019-03-04T07:50:13.875Z,98422.84
2019-03-04T07:51:20.839Z,98421.20
2019-03-04T07:52:25.576Z,98421.20
2019-03-04T07:53:29.839Z,98416.25
2019-03-04T07:54:37.661Z,98413.86
2019-03-04T07:55:42.008Z,98419.48
2019-03-04T07:56:46.330Z,98410.23
2019-03-04T07:57:51.129Z,98409.77
2019-03-04T07:58:55.421Z,98401.40
2019-03-04T07:59:59.702Z,98414.84
2019-03-04T08:01:08.467Z,98405.34
2019-03-04T08:02:12.749Z,98405.65
2019-03-04T08:03:16.990Z,98396.76
2019-03-04T08:04:24.265Z,98392.05
2019-03-04T08:05:31.415Z,98393.22
2019-03-04T08:06:36.723Z,98391.90
2019-03-04T08:07:50.101Z,98398.28
2019-03-04T08:09:12.202Z,98388.17
2019-03-04T08:10:53.207Z,98393.24
2019-03-04T08:12:30.661Z,98395.97
2019-03-04T08:13:41.166Z,98394.95
2019-03-04T08:14:47.926Z,98393.09
2019-03-04T08:15:52.249Z,98383.89
2019-03-04T08:16:56.663Z,98384.81
2019-03-04T08:18:00.931Z,98388.05
2019-03-04T08:19:05.466Z,98383.64
2019-03-04T08:20:09.758Z,98379.61
2019-03-04T08:21:16.975Z,98383.77
2019-03-04T08:22:21.262Z,98380.13
2019-03-04T08:23:25.552Z,98370.92
2019-03-04T08:24:32.684Z,98359.80
2019-03-04T08:25:37.022Z,98351.91
2019-03-04T08:26:41.474Z,98350.03
2019-03-04T08:27:48.723Z,98340.44
2019-03-04T08:28:52.968Z,98330.38
2019-03-04T08:29:57.223Z,98332.75
2019-03-04T08:31:02.446Z,98331.19
2019-03-04T08:32:06.755Z,98325.31
2019-03-04T08:33:11.068Z,98320.62
2019-03-04T08:34:15.401Z,98309.73
2019-03-04T08:35:20.694Z,98300.99
2019-03-04T08:36:28.270Z,98304.13
2019-03-04T08:37:32.559Z,98308.02
2019-03-04T08:38:39.807Z,98318.34
2019-03-04T08:39:44.130Z,98307.11
2019-03-04T08:40:51.061Z,98287.99
2019-03-04T08:41:55.389Z,98284.16
2019-03-04T08:42:59.666Z,98272.28
2019-03-04T08:44:06.672Z,98299.32
2019-03-04T08:45:13.658Z,98283.38
2019-03-04T08:46:22.332Z,98272.39
2019-03-04T08:47:28.214Z,98257.11
2019-03-04T08:48:35.564Z,98248.85
2019-03-04T08:49:40.004Z,98256.84
2019-03-04T08:50:47.021Z,98291.01
2019-03-04T08:51:51.301Z,98290.19
2019-03-04T08:52:58.594Z,98280.61
2019-03-04T08:54:06.514Z,98279.77
2019-03-04T08:55:18.048Z,98265.20
2019-03-04T08:56:22.281Z,98262.22
2019-03-04T08:57:26.538Z,98257.18
2019-03-04T08:58:34.359Z,98257.25
2019-03-04T08:59:38.830Z,98268.92
2019-03-04T09:00:46.319Z,98255.22
2019-03-04T09:01:50.940Z,98255.22
2019-03-04T09:02:55.201Z,98224.62
2019-03-04T09:03:59.552Z,98243.27
2019-03-04T09:05:06.099Z,98230.07
2019-03-04T09:06:10.315Z,98263.68
2019-03-04T09:07:17.707Z,98249.16
2019-03-04T09:08:21.992Z,98247.01
2019-03-04T09:09:27.268Z,98252.92
2019-03-04T09:10:33.253Z,98252.92
2019-03-04T09:11:37.942Z,98242.50
2019-03-04T09:12:42.235Z,98256.89
2019-03-04T09:13:46.508Z,98247.04
2019-03-04T09:14:50.914Z,98239.70
2019-03-04T09:15:55.151Z,98239.03
2019-03-04T09:16:59.449Z,98233.66
2019-03-04T09:18:03.704Z,98225.69
2019-03-04T09:19:07.981Z,98225.69
2019-03-04T09:20:17.162Z,98216.84
2019-03-04T09:21:21.408Z,98215.80
2019-03-04T09:22:25.745Z,98198.97
2019-03-04T09:23:31.629Z,98198.97
2019-03-04T09:24:38.970Z,98191.64
2019-03-04T09:25:52.132Z,98188.53
2019-03-04T09:26:56.387Z,98200.45
2019-03-04T09:28:01.001Z,98200.45
2019-03-04T09:29:06.252Z,98205.47
2019-03-04T09:30:13.127Z,98192.47
2019-03-04T09:31:17.440Z,98192.68
2019-03-04T09:32:22.106Z,98172.72
2019-03-04T09:33:27.167Z,98161.45
2019-03-04T09:34:31.541Z,98146.64
2019-03-04T09:35:35.794Z,98169.53
2019-03-04T09:36:40.122Z,98165.97
2019-03-04T09:37:47.024Z,98184.97
2019-03-04T09:38:51.301Z,98189.86
2019-03-04T09:39:55.941Z,98179.50
2019-03-04T09:41:00.200Z,98179.50
2019-03-04T09:42:09.082Z,98174.91
2019-03-04T09:43:13.505Z,98170.20
2019-03-04T09:44:17.779Z,98180.64
2019-03-04T09:45:22.020Z,98166.52
2019-03-04T09:46:26.330Z,98171.21
2019-03-04T09:47:30.879Z,98150.64
2019-03-04T09:54:22.941Z,98165.94
2019-03-04T09:55:27.197Z,98145.62
2019-03-04T09:56:31.482Z,98168.65
2019-03-04T09:57:36.824Z,98160.28
2019-03-04T09:58:41.156Z,98160.28
2019-03-04T09:59:47.040Z,98161.77
2019-03-04T10:01:09.648Z,98162.73
2019-03-04T10:02:13.974Z,98162.34
2019-03-04T10:03:39.659Z,98148.64
2019-03-04T10:04:52.513Z,98157.94
2019-03-04T10:06:02.800Z,98149.96
2019-03-04T10:07:34.647Z,98141.59
2019-03-04T10:08:51.083Z,98143.27
2019-03-04T10:09:58.985Z,98122.13
2019-03-04T10:11:06.506Z,98137.53
2019-03-04T10:12:30.463Z,98137.08
2019-03-04T10:13:43.175Z,98136.57
2019-03-04T10:15:09.069Z,98109.21
2019-03-04T10:16:19.427Z,98109.21
2019-03-04T10:17:46.247Z,98118.89
2019-03-04T10:19:13.361Z,98116.63
2019-03-04T10:20:29.865Z,98098.09
2019-03-04T10:21:53.558Z,98111.64
2019-03-04T10:23:06.865Z,98101.00
2019-03-04T10:24:33.149Z,98097.68
2019-03-04T10:25:57.885Z,98063.20
2019-03-04T10:27:11.117Z,98058.28
2019-03-04T10:28:50.447Z,98071.53
2019-03-04T10:30:19.214Z,98071.53
2019-03-04T10:31:41.908Z,98066.56
2019-03-04T10:33:07.506Z,98070.16
2019-03-04T10:34:48.583Z,98070.16
2019-03-04T10:36:04.833Z,98069.10
2019-03-04T10:37:30.145Z,98074.09
2019-03-04T10:38:46.129Z,98074.38
2019-03-04T10:40:17.832Z,98072.13
2019-03-04T10:41:28.160Z,98062.56
2019-03-04T10:42:50.490Z,98057.63
2019-03-04T10:44:12.829Z,98056.91
2019-03-04T10:45:35.200Z,98057.59
2019-03-04T10:46:54.132Z,98051.78
2019-03-04T10:47:59.524Z,98039.56
2019-03-04T10:49:03.756Z,98038.34
2019-03-04T10:50:10.260Z,98036.91
2019-03-04T10:51:14.759Z,98032.67
2019-03-04T10:52:19.566Z,98026.50
2019-03-04T10:53:24.274Z,98019.29
2019-03-04T10:54:28.593Z,98019.94
2019-03-04T10:55:41.706Z,98025.77
2019-03-04T10:56:41.597Z,98019.34
2019-03-04T10:57:45.123Z,98024.63
2019-03-04T10:58:49.375Z,98013.41
2019-03-04T10:59:53.621Z,98012.54
2019-03-04T11:00:57.885Z,98003.61
2019-03-04T11:02:02.162Z,98006.47
2019-03-04T11:03:06.432Z,97994.23
2019-03-04T11:04:10.740Z,97995.03
2019-03-04T11:05:14.993Z,97991.80
2019-03-04T11:06:19.325Z,97986.13
2019-03-04T11:07:23.915Z,97981.84
2019-03-04T11:08:28.168Z,97984.34
2019-03-04T11:09:32.410Z,97988.42
2019-03-04T11:10:36.657Z,97989.53
2019-03-04T11:11:41.070Z,97979.20
2019-03-04T11:12:45.317Z,98015.85
2019-03-04T11:13:49.586Z,98007.97
2019-03-04T11:14:53.856Z,97998.59
2019-03-04T11:15:58.114Z,97999.70
2019-03-04T11:17:02.398Z,98004.99
2019-03-04T11:18:06.715Z,98019.53
2019-03-04T11:19:10.988Z,98017.22
2019-03-04T11:20:15.247Z,98019.09
2019-03-04T11:21:19.496Z,98016.83
2019-03-04T11:22:23.814Z,98013.70
2019-03-04T11:23:29.266Z,98006.59
2019-03-04T11:24:33.529Z,97991.73
2019-03-04T11:25:38.095Z,98009.19
2019-03-04T11:26:42.361Z,98015.55
2019-03-04T11:27:47.482Z,98017.38
2019-03-04T11:28:51.733Z,98038.41
2019-03-04T11:29:55.993Z,98130.05
2019-03-04T11:31:00.263Z,98118.16
2019-03-04T11:32:04.675Z,98184.38
2019-03-04T11:33:08.946Z,98165.30
2019-03-04T11:34:13.200Z,98187.57
2019-03-04T11:35:17.713Z,98210.56
2019-03-04T11:36:21.967Z,98210.56
2019-03-04T11:37:26.238Z,98190.34
2019-03-04T11:38:38.236Z,98197.55
2019-03-04T11:39:49.627Z,98193.76
2019-03-04T11:40:53.899Z,98229.97
2019-03-04T11:41:58.234Z,98220.33
2019-03-04T11:43:02.500Z,98222.65
2019-03-04T11:44:06.829Z,98213.42
2019-03-04T11:45:14.029Z,98205.70
2019-03-04T11:46:20.713Z,98213.71
2019-03-04T11:47:25.714Z,98201.77
2019-03-04T11:48:30.001Z,98225.41
2019-03-04T11:49:34.556Z,98223.32
2019-03-04T11:50:38.834Z,98229.19
2019-03-04T11:51:43.070Z,98225.58
2019-03-04T11:52:47.321Z,98226.89
2019-03-04T11:53:51.765Z,98228.97
2019-03-04T11:54:56.257Z,98222.65
2019-03-04T11:56:00.742Z,98225.35
2019-03-04T11:57:05.215Z,98234.75
2019-03-04T11:58:09.540Z,98228.12
2019-03-04T11:59:13.832Z,98229.11
2019-03-04T12:00:25.197Z,98219.63
2019-03-04T12:01:37.177Z,98223.55
2019-03-04T12:02:41.516Z,98233.13
2019-03-04T12:03:45.806Z,98223.28
2019-03-04T12:04:50.480Z,98213.16
2019-03-04T12:05:55.193Z,98240.69
2019-03-04T12:06:59.562Z,98215.42
2019-03-04T12:08:03.960Z,98177.25
2019-03-04T12:09:11.432Z,98174.08
2019-03-04T12:10:17.916Z,98183.88
2019-03-04T12:11:22.163Z,98184.87
2019-03-04T12:12:26.473Z,98192.64
2019-03-04T12:13:30.844Z,98183.56
2019-03-04T12:14:35.211Z,98170.28
2019-03-04T12:15:39.754Z,98164.37
2019-03-04T12:16:45.786Z,98173.23
2019-03-04T12:17:50.166Z,98177.70
2019-03-04T12:18:54.513Z,98182.26
2019-03-04T12:19:58.792Z,98177.47
2019-03-04T12:21:03.138Z,98179.95
2019-03-04T12:22:07.920Z,98173.16
2019-03-04T12:23:12.345Z,98172.16
2019-03-04T12:24:16.694Z,98163.30
2019-03-04T12:25:22.078Z,98172.24
2019-03-04T12:26:26.400Z,98163.20
2019-03-04T12:27:31.086Z,98154.55
2019-03-04T12:28:35.464Z,98153.00
2019-03-04T12:29:39.797Z,98160.94
2019-03-04T12:30:44.382Z,98157.84
2019-03-04T12:31:50.331Z,98139.75
2019-03-04T12:32:54.892Z,98161.23
2019-03-04T12:33:59.313Z,98148.32
2019-03-04T12:35:07.032Z,98142.27
2019-03-04T12:36:11.353Z,98141.13
2019-03-04T12:37:16.324Z,98147.31
2019-03-04T12:38:20.612Z,98138.98
2019-03-04T12:39:25.058Z,98136.56
2019-03-04T12:40:29.462Z,98133.29
2019-03-04T12:41:34.072Z,98128.70
2019-03-04T12:42:38.538Z,98127.63
2019-03-04T12:43:42.867Z,98125.31
2019-03-04T12:44:48.629Z,98120.62
2019-03-04T12:45:52.961Z,98119.70
2019-03-04T12:46:57.288Z,98114.65
2019-03-04T12:48:01.691Z,98126.21
2019-03-04T12:49:06.134Z,98120.30
2019-03-04T12:50:13.624Z,98109.73
2019-03-04T12:51:23.054Z,98104.78
2019-03-04T12:52:23.988Z,98111.59
2019-03-04T12:53:37.052Z,98104.48
2019-03-04T12:54:34.482Z,98102.65
2019-03-04T12:55:38.823Z,98098.55
2019-03-04T12:56:44.427Z,98104.75
2019-03-04T12:57:49.281Z,98102.15
2019-03-04T12:58:54.058Z,98092.39
2019-03-04T12:59:58.425Z,98100.18
2019-03-04T13:01:02.817Z,98095.67
2019-03-04T13:02:07.788Z,98093.90
2019-03-04T13:03:17.837Z,98103.98
2019-03-04T13:04:22.216Z,98098.06
2019-03-04T13:05:26.584Z,98098.36
2019-03-04T13:06:30.907Z,98099.00
2019-03-04T13:07:35.236Z,98098.89
2019-03-04T13:08:39.992Z,98095.80
2019-03-04T13:09:44.360Z,98091.50
2019-03-04T13:10:48.675Z,98086.67
2019-03-04T13:11:53.084Z,98097.02
2019-03-04T13:12:57.431Z,98087.45
2019-03-04T13:14:01.841Z,98087.45
2019-03-04T13:15:16.423Z,98075.60
2019-03-04T13:16:20.861Z,98069.09
2019-03-04T13:17:26.776Z,98069.09
2019-03-04T13:18:31.111Z,98054.44
2019-03-04T13:19:37.123Z,98070.62
2019-03-04T13:20:41.760Z,98071.83
2019-03-04T13:21:46.071Z,98071.83
2019-03-04T13:22:51.199Z,98062.83
2019-03-04T13:23:56.996Z,98070.44